Time;durP1;ratioP1;P1;durP2;ratioP2;P2;SDS_P1;SDS_P2;PMS_P1;PMS_P2;Temp;Humidity;BMP_temperature;BMP_pressure;BME280_temperature;BME280_humidity;BME280_pressure;Samples;Min_cycle;Max_cycle;Signal;HPM_P1;HPM_P2
2023/02/01 00:00:45;;;;;;;8.27;6.23;;;4.80;99.90;;;;;;5045703;28;20209;-86
2023/02/01 00:03:12;;;;;;;10.57;6.63;;;4.60;99.90;;;;;;5046456;28;20208;-86
2023/02/01 00:05:38;;;;;;;8.63;6.97;;;4.70;99.90;;;;;;5045809;28;20242;-86
2023/02/01 00:08:04;;;;;;;7.13;6.33;;;4.70;99.90;;;;;;5045293;28;20173;-86
2023/02/01 00:10:30;;;;;;;6.17;5.57;;;4.70;99.90;;;;;;5044982;28;20197;-85
2023/02/01 00:12:56;;;;;;;6.63;5.63;;;4.80;99.90;;;;;;5044756;28;20203;-86
2023/02/01 00:15:22;;;;;;;6.67;5.97;;;4.70;99.90;;;;;;5044774;28;20181;-86
2023/02/01 00:17:52;;;;;;;6.97;5.97;;;4.80;99.90;;;;;;5044965;28;20195;-86
2023/02/01 00:20:18;;;;;;;7.43;5.40;;;4.70;99.90;;;;;;5043451;28;20220;-86
2023/02/01 00:22:44;;;;;;;6.97;6.27;;;4.70;99.90;;;;;;5045341;28;20549;-86
2023/02/01 00:25:09;;;;;;;7.47;6.07;;;4.80;99.90;;;;;;5044109;28;20209;-85
2023/02/01 00:27:35;;;;;;;8.27;6.33;;;4.70;99.90;;;;;;5044792;28;20173;-86
2023/02/01 00:30:01;;;;;;;8.07;6.30;;;4.60;99.90;;;;;;5047041;28;20643;-86
2023/02/01 00:32:27;;;;;;;6.30;5.70;;;4.70;99.90;;;;;;5045155;28;20176;-85
2023/02/01 00:34:52;;;;;;;8.13;5.90;;;4.80;99.90;;;;;;5044361;28;20193;-86
2023/02/01 00:37:18;;;;;;;6.47;5.73;;;4.70;99.90;;;;;;5041790;28;20181;-85
2023/02/01 00:39:43;;;;;;;6.00;5.40;;;4.80;99.90;;;;;;5043447;28;20204;-86
2023/02/01 00:42:09;;;;;;;7.10;6.40;;;4.90;99.90;;;;;;5043291;28;20185;-88
2023/02/01 00:44:35;;;;;;;7.10;5.07;;;4.80;99.90;;;;;;5043881;28;20605;-86
2023/02/01 00:47:01;;;;;;;6.67;4.97;;;4.90;99.90;;;;;;5050006;28;20185;-88
2023/02/01 00:49:28;;;;;;;6.43;5.10;;;4.80;99.90;;;;;;5056734;28;20192;-87
2023/02/01 00:51:53;;;;;;;6.57;5.57;;;4.80;99.90;;;;;;5042906;28;20194;-87
2023/02/01 00:54:19;;;;;;;5.63;4.90;;;4.70;99.90;;;;;;5048065;28;20177;-86
2023/02/01 00:56:45;;;;;;;5.70;5.00;;;4.60;99.90;;;;;;5043570;28;20629;-85
2023/02/01 00:59:12;;;;;;;6.57;5.23;;;4.70;99.90;;;;;;5044156;28;20240;-86
2023/02/01 01:01:37;;;;;;;6.67;5.17;;;4.70;99.90;;;;;;5043635;28;20188;-87
2023/02/01 01:04:03;;;;;;;7.13;5.70;;;4.60;99.90;;;;;;5043717;28;20204;-85
2023/02/01 01:06:31;;;;;;;5.53;5.03;;;4.60;99.90;;;;;;5044180;28;20607;-85
2023/02/01 01:08:58;;;;;;;6.13;5.10;;;4.60;99.90;;;;;;5043034;28;20208;-85
2023/02/01 01:11:27;;;;;;;9.03;5.60;;;4.70;99.90;;;;;;5043970;28;20251;-85
2023/02/01 01:13:55;;;;;;;5.93;5.33;;;4.70;99.90;;;;;;5043427;28;20215;-85
2023/02/01 01:16:24;;;;;;;5.30;4.80;;;4.60;99.90;;;;;;5042580;28;20197;-84
2023/02/01 01:18:50;;;;;;;5.60;4.63;;;4.70;99.90;;;;;;5043809;28;20230;-85
2023/02/01 01:21:16;;;;;;;8.10;4.70;;;4.70;99.90;;;;;;5043221;28;20190;-85
2023/02/01 01:23:43;;;;;;;5.20;4.70;;;4.80;99.90;;;;;;5044263;28;20705;-86
2023/02/01 01:26:13;;;;;;;5.17;4.63;;;4.70;99.90;;;;;;5043660;28;20184;-85
2023/02/01 01:28:39;;;;;;;5.20;4.33;;;4.80;99.90;;;;;;5044572;28;20184;-85
2023/02/01 01:31:09;;;;;;;4.87;4.37;;;4.90;99.90;;;;;;5041590;28;20212;-85
2023/02/01 01:33:35;;;;;;;5.00;4.50;;;4.80;99.90;;;;;;5037532;28;20185;-85
2023/02/01 01:36:00;;;;;;;4.77;4.37;;;4.80;99.90;;;;;;5036150;28;20192;-85
2023/02/01 01:38:26;;;;;;;7.67;4.77;;;4.90;99.90;;;;;;5035819;28;20189;-87
2023/02/01 01:40:52;;;;;;;4.83;4.33;;;4.80;99.90;;;;;;5034610;28;20228;-86
2023/02/01 01:43:22;;;;;;;4.60;4.20;;;4.70;99.90;;;;;;5036787;28;20213;-87
2023/02/01 01:45:50;;;;;;;4.80;4.30;;;4.70;99.90;;;;;;5037492;28;20244;-85
2023/02/01 01:48:29;;;;;;;5.57;4.40;;;4.70;99.90;;;;;;5039531;28;20208;-85
2023/02/01 01:51:08;;;;;;;5.00;4.50;;;4.70;99.90;;;;;;5041514;28;20203;-85
2023/02/01 01:53:42;;;;;;;5.47;4.63;;;4.70;99.90;;;;;;5026270;28;20199;-86
2023/02/01 01:56:07;;;;;;;4.40;4.00;;;4.80;99.90;;;;;;5041275;28;20169;-87
2023/02/01 01:58:34;;;;;;;5.73;3.70;;;4.70;99.90;;;;;;5045237;28;20536;-85
2023/02/01 02:00:59;;;;;;;5.33;4.13;;;4.70;99.90;;;;;;5040152;28;20193;-86
2023/02/01 02:03:33;;;;;;;4.93;3.93;;;4.90;99.90;;;;;;5040086;28;20295;-85
2023/02/01 02:06:02;;;;;;;8.07;4.40;;;4.80;99.90;;;;;;5040118;28;20177;-86
2023/02/01 02:08:28;;;;;;;5.63;4.50;;;4.70;99.90;;;;;;5040848;28;20181;-86
2023/02/01 02:11:01;;;;;;;6.07;4.43;;;4.70;99.90;;;;;;5028389;28;20232;-86
2023/02/01 02:13:35;;;;;;;5.53;4.17;;;4.70;99.90;;;;;;5037291;28;20296;-86
2023/02/01 02:16:13;;;;;;;4.63;4.07;;;4.70;99.90;;;;;;5039331;28;20211;-86
2023/02/01 02:18:51;;;;;;;6.43;4.60;;;4.60;99.90;;;;;;5040933;28;20185;-86
2023/02/01 02:21:33;;;;;;;5.43;4.40;;;4.60;99.90;;;;;;5041524;28;20184;-86
2023/02/01 02:24:27;;;;;;;5.40;4.00;;;4.70;99.90;;;;;;5041351;28;20208;-85
2023/02/01 02:26:59;;;;;;;4.67;4.17;;;4.60;99.90;;;;;;5038669;28;20229;-85
2023/02/01 02:29:43;;;;;;;4.77;4.20;;;4.60;99.90;;;;;;5038348;28;20313;-84
2023/02/01 02:32:17;;;;;;;4.57;4.00;;;4.60;99.90;;;;;;5035539;28;20169;-86
2023/02/01 02:34:57;;;;;;;3.97;3.57;;;4.60;99.90;;;;;;5035447;28;20180;-86
2023/02/01 02:37:34;;;;;;;6.50;4.20;;;4.60;99.90;;;;;;5034338;28;20184;-86
2023/02/01 02:40:10;;;;;;;6.30;4.20;;;4.60;99.90;;;;;;5034792;28;20248;-86
2023/02/01 02:49:19;;;;;;;4.07;3.67;;;4.60;99.90;;;;;;4979993;28;20246;-85
2023/02/01 02:54:57;;;;;;;4.73;4.10;;;4.70;99.90;;;;;;5026857;28;20236;-86
2023/02/01 03:05:57;;;;;;;4.50;4.00;;;4.70;99.90;;;;;;5036627;28;20203;-87
2023/02/01 03:08:26;;;;;;;4.60;4.20;;;4.70;99.90;;;;;;5027511;28;20206;-85
2023/02/01 03:11:04;;;;;;;4.10;3.70;;;4.70;99.90;;;;;;5026883;28;20202;-85
2023/02/01 03:13:44;;;;;;;4.63;4.20;;;4.70;99.90;;;;;;5034278;28;20671;-86
2023/02/01 03:16:23;;;;;;;5.17;3.57;;;4.60;99.90;;;;;;5025469;28;20185;-85
2023/02/01 03:19:11;;;;;;;5.07;4.27;;;4.50;99.90;;;;;;5040679;28;20169;-85
2023/02/01 03:22:07;;;;;;;4.40;3.87;;;4.50;99.90;;;;;;5040689;28;20181;-86
2023/02/01 03:24:42;;;;;;;4.83;4.43;;;4.50;99.90;;;;;;5030538;28;20439;-85
2023/02/01 03:27:20;;;;;;;5.07;4.10;;;4.50;99.90;;;;;;5038759;28;20175;-86
2023/02/01 03:29:57;;;;;;;5.57;4.17;;;4.60;99.90;;;;;;5039271;28;20201;-85
2023/02/01 03:32:23;;;;;;;4.90;4.50;;;4.50;99.90;;;;;;5038165;28;20183;-85
2023/02/01 03:34:50;;;;;;;4.63;4.10;;;4.60;99.90;;;;;;5038401;28;20590;-85
2023/02/01 03:37:26;;;;;;;4.70;4.10;;;4.50;99.90;;;;;;5038674;28;20201;-85
2023/02/01 03:40:07;;;;;;;6.77;4.53;;;4.70;99.90;;;;;;5038541;28;20220;-86
2023/02/01 03:42:41;;;;;;;4.47;4.07;;;4.80;99.90;;;;;;5039987;28;20179;-85
2023/02/01 03:45:13;;;;;;;4.30;3.90;;;4.70;99.90;;;;;;5040103;28;20196;-85
2023/02/01 03:47:43;;;;;;;6.10;4.40;;;4.70;99.90;;;;;;5039898;28;20178;-86
2023/02/01 03:50:14;;;;;;;6.07;4.30;;;4.70;99.90;;;;;;5040393;28;20295;-85
2023/02/01 03:52:44;;;;;;;4.27;3.87;;;4.80;99.90;;;;;;5039676;28;20639;-85
2023/02/01 03:55:12;;;;;;;4.73;4.17;;;4.80;99.90;;;;;;5039058;28;20189;-86
2023/02/01 03:57:50;;;;;;;4.73;4.13;;;4.80;99.90;;;;;;5039023;28;20865;-85
2023/02/01 04:00:22;;;;;;;4.67;4.20;;;4.70;99.90;;;;;;5039523;28;20622;-86
2023/02/01 04:02:48;;;;;;;4.63;4.13;;;4.80;99.90;;;;;;5038146;28;20667;-86
2023/02/01 04:05:14;;;;;;;4.83;4.10;;;4.90;99.90;;;;;;5031118;28;20300;-85
2023/02/01 04:07:40;;;;;;;7.67;4.00;;;5.00;99.90;;;;;;5041119;28;20177;-84
2023/02/01 04:10:06;;;;;;;4.10;3.70;;;4.90;99.90;;;;;;5031857;28;20198;-85
2023/02/01 04:12:32;;;;;;;5.80;3.97;;;4.80;99.90;;;;;;5029384;28;20187;-86
2023/02/01 04:14:58;;;;;;;4.73;4.23;;;4.80;99.90;;;;;;5030730;28;20220;-86
2023/02/01 04:17:23;;;;;;;4.30;3.90;;;4.80;99.90;;;;;;5039824;28;20196;-84
2023/02/01 04:19:49;;;;;;;4.83;4.27;;;4.80;99.90;;;;;;5039484;28;20197;-86
2023/02/01 04:22:15;;;;;;;5.80;4.40;;;4.60;99.90;;;;;;5039734;28;20177;-86
2023/02/01 04:24:41;;;;;;;4.67;3.97;;;4.70;99.90;;;;;;5038123;28;20193;-86
2023/02/01 04:27:06;;;;;;;5.43;4.83;;;4.80;99.90;;;;;;5038276;28;20189;-86
2023/02/01 04:29:32;;;;;;;4.80;4.40;;;4.70;99.90;;;;;;5038514;28;20531;-85
2023/02/01 04:31:57;;;;;;;5.67;4.87;;;4.70;99.90;;;;;;5038725;28;20185;-86
2023/02/01 04:34:24;;;;;;;5.33;3.97;;;4.80;99.90;;;;;;5039441;28;20185;-85
2023/02/01 04:36:50;;;;;;;4.90;4.40;;;4.80;99.90;;;;;;5040367;28;20187;-85
2023/02/01 04:39:16;;;;;;;5.47;4.87;;;4.80;99.90;;;;;;5040674;28;20216;-85
2023/02/01 04:41:42;;;;;;;5.63;4.40;;;4.70;99.90;;;;;;5040162;28;20188;-85
2023/02/01 04:44:16;;;;;;;6.63;5.20;;;4.60;99.90;;;;;;5042441;28;20280;-85
2023/02/01 04:46:43;;;;;;;5.37;4.77;;;4.60;99.90;;;;;;5052774;28;20160;-86
2023/02/01 04:49:09;;;;;;;5.47;4.97;;;4.60;99.90;;;;;;5052792;28;20197;-86
2023/02/01 04:51:35;;;;;;;4.70;4.27;;;4.60;99.90;;;;;;5048732;28;20192;-86
2023/02/01 04:54:01;;;;;;;5.50;4.53;;;4.50;99.90;;;;;;5039928;28;20216;-84
2023/02/01 04:56:26;;;;;;;5.20;4.27;;;4.60;99.90;;;;;;5025037;28;20186;-86
2023/02/01 04:58:52;;;;;;;5.40;4.33;;;4.70;99.90;;;;;;5039172;28;20295;-87
2023/02/01 05:01:18;;;;;;;5.37;4.50;;;4.60;99.90;;;;;;5033166;28;20195;-85
2023/02/01 05:03:44;;;;;;;4.87;4.43;;;4.70;99.90;;;;;;5037538;28;20216;-84
2023/02/01 05:06:09;;;;;;;7.47;4.40;;;4.60;99.90;;;;;;5029892;28;20409;-85
2023/02/01 05:08:35;;;;;;;4.93;4.20;;;4.50;99.90;;;;;;5029849;28;20656;-84
2023/02/01 05:11:03;;;;;;;4.83;4.37;;;4.40;99.90;;;;;;5021468;28;20177;-84
2023/02/01 05:13:49;;;;;;;4.93;4.53;;;4.40;99.90;;;;;;5027932;28;20169;-85
2023/02/01 05:16:15;;;;;;;5.33;4.83;;;4.30;99.90;;;;;;5041546;28;20276;-86
2023/02/01 05:18:41;;;;;;;6.13;4.87;;;4.30;99.90;;;;;;5040737;28;20191;-86
2023/02/01 05:21:07;;;;;;;5.33;4.83;;;4.30;99.90;;;;;;5039140;28;20212;-85
2023/02/01 05:24:09;;;;;;;5.20;4.70;;;4.30;99.90;;;;;;5037744;28;20223;-86
2023/02/01 05:26:18;;;;;;;4.73;4.33;;;4.40;99.90;;;;;;5038026;28;20180;-85
2023/02/01 05:28:44;;;;;;;5.00;4.13;;;4.30;99.90;;;;;;5036718;28;20197;-85
2023/02/01 05:31:11;;;;;;;4.87;4.43;;;4.30;99.90;;;;;;5019329;28;20170;-85
2023/02/01 05:33:36;;;;;;;5.00;4.50;;;4.30;99.90;;;;;;5027645;28;20189;-86
2023/02/01 05:36:02;;;;;;;5.23;4.73;;;4.30;99.90;;;;;;5033237;28;20177;-85
2023/02/01 05:38:29;;;;;;;5.93;4.93;;;4.30;99.90;;;;;;5021672;28;20208;-85
2023/02/01 05:40:55;;;;;;;4.43;4.03;;;4.30;99.90;;;;;;5019477;28;20268;-85
2023/02/01 05:43:21;;;;;;;7.10;4.37;;;4.40;99.90;;;;;;5031037;28;20243;-85
2023/02/01 05:45:46;;;;;;;4.60;4.20;;;4.40;99.90;;;;;;5040984;28;20176;-86
2023/02/01 05:48:12;;;;;;;4.80;4.27;;;4.50;99.90;;;;;;5030351;28;20182;-86
2023/02/01 05:50:38;;;;;;;6.57;4.57;;;4.50;99.90;;;;;;5025764;28;20192;-85
2023/02/01 05:53:03;;;;;;;5.63;4.20;;;4.50;99.90;;;;;;5042867;28;20268;-86
2023/02/01 05:55:29;;;;;;;5.53;4.83;;;4.50;99.90;;;;;;5044313;28;20188;-85
2023/02/01 05:57:54;;;;;;;5.37;4.47;;;4.50;99.90;;;;;;5041346;28;20185;-85
2023/02/01 06:00:21;;;;;;;6.07;5.00;;;4.50;99.90;;;;;;5041602;28;20674;-85
2023/02/01 06:02:46;;;;;;;7.63;4.97;;;4.50;99.90;;;;;;5040404;28;20228;-85
2023/02/01 06:05:12;;;;;;;5.47;4.80;;;4.50;99.90;;;;;;5041394;28;20227;-85
2023/02/01 06:07:38;;;;;;;5.20;4.10;;;4.60;99.90;;;;;;5040593;28;20185;-86
2023/02/01 06:10:04;;;;;;;6.90;4.43;;;4.60;99.90;;;;;;5036385;28;20209;-85
2023/02/01 06:12:30;;;;;;;6.80;4.90;;;4.60;99.90;;;;;;5030030;28;20830;-86
2023/02/01 06:14:55;;;;;;;5.63;4.60;;;4.60;99.90;;;;;;5018562;28;20276;-86
2023/02/01 06:17:21;;;;;;;5.27;4.53;;;4.70;99.90;;;;;;5017781;28;20177;-86
2023/02/01 06:19:48;;;;;;;6.10;4.57;;;4.60;99.90;;;;;;5021163;28;20336;-87
2023/02/01 06:22:14;;;;;;;5.90;4.67;;;4.60;99.90;;;;;;5021623;28;20327;-84
2023/02/01 06:24:40;;;;;;;5.27;4.53;;;4.70;99.90;;;;;;5018504;28;20209;-86
2023/02/01 06:27:06;;;;;;;5.93;5.03;;;4.70;99.90;;;;;;5031463;28;20185;-86
2023/02/01 06:29:32;;;;;;;6.40;4.70;;;4.70;99.90;;;;;;5041675;28;20196;-86
2023/02/01 06:31:59;;;;;;;4.93;4.40;;;4.80;99.90;;;;;;5040700;28;20697;-87
2023/02/01 06:34:24;;;;;;;8.30;4.90;;;4.80;99.90;;;;;;5039700;28;20271;-86
2023/02/01 06:36:50;;;;;;;5.07;4.53;;;4.80;99.90;;;;;;5055049;28;20255;-85
2023/02/01 06:39:16;;;;;;;4.83;4.37;;;4.80;99.90;;;;;;5044033;28;20231;-85
2023/02/01 06:41:51;;;;;;;6.50;4.47;;;4.80;99.90;;;;;;5046296;28;20181;-85
2023/02/01 06:44:17;;;;;;;5.00;4.50;;;4.70;99.90;;;;;;5043570;28;20207;-86
2023/02/01 06:46:42;;;;;;;5.90;4.83;;;4.80;99.90;;;;;;5041444;28;20181;-85
2023/02/01 06:49:08;;;;;;;5.27;4.50;;;4.90;99.90;;;;;;5041793;28;20238;-85
2023/02/01 06:51:34;;;;;;;7.07;4.93;;;4.90;99.90;;;;;;5042012;28;20191;-87
2023/02/01 06:54:00;;;;;;;5.27;4.37;;;4.90;99.90;;;;;;5036011;28;20189;-86
2023/02/01 06:56:27;;;;;;;6.13;4.50;;;5.10;99.90;;;;;;5021326;28;20188;-86
2023/02/01 06:58:53;;;;;;;6.07;4.73;;;5.00;99.90;;;;;;5024204;28;20217;-86
2023/02/01 07:01:19;;;;;;;4.93;4.30;;;5.00;99.90;;;;;;5034727;28;20558;-86
2023/02/01 07:03:50;;;;;;;5.93;4.60;;;5.00;99.90;;;;;;5041880;28;20234;-87
2023/02/01 07:06:17;;;;;;;6.03;4.70;;;5.10;99.90;;;;;;5043064;28;20230;-86
2023/02/01 07:08:42;;;;;;;8.33;5.07;;;5.00;99.90;;;;;;5040732;28;20176;-87
2023/02/01 07:11:12;;;;;;;7.43;4.63;;;4.80;99.90;;;;;;5040055;28;20236;-87
2023/02/01 07:13:38;;;;;;;8.07;4.83;;;4.80;99.90;;;;;;5032756;28;20189;-87
2023/02/01 07:16:07;;;;;;;5.37;4.70;;;4.70;99.90;;;;;;5037876;28;20197;-87
2023/02/01 07:18:33;;;;;;;5.23;4.47;;;4.60;99.90;;;;;;5037720;28;20243;-86
2023/02/01 07:20:59;;;;;;;5.43;4.80;;;4.60;99.90;;;;;;5038561;28;20664;-87
2023/02/01 07:23:25;;;;;;;6.63;4.53;;;4.50;99.90;;;;;;5039538;28;20259;-85
2023/02/01 07:26:00;;;;;;;5.57;4.73;;;4.60;99.90;;;;;;5039232;28;20208;-87
2023/02/01 07:28:27;;;;;;;5.43;4.93;;;4.60;99.90;;;;;;5041398;28;20176;-87
2023/02/01 07:30:53;;;;;;;8.77;5.30;;;4.60;99.90;;;;;;5040366;28;20221;-87
2023/02/01 07:33:21;;;;;;;8.23;4.67;;;4.50;99.90;;;;;;5042865;28;20180;-84
2023/02/01 07:35:48;;;;;;;5.77;5.03;;;4.40;99.90;;;;;;5043258;28;20169;-87
2023/02/01 07:38:14;;;;;;;6.53;5.17;;;4.40;99.90;;;;;;5044454;28;20187;-85
2023/02/01 07:40:40;;;;;;;7.13;5.23;;;4.40;99.90;;;;;;5044220;28;20228;-86
2023/02/01 07:43:08;;;;;;;6.53;4.53;;;4.50;99.90;;;;;;5043147;28;20181;-86
2023/02/01 07:45:35;;;;;;;8.30;5.10;;;4.50;99.90;;;;;;5042678;28;20463;-86
2023/02/01 07:48:01;;;;;;;6.80;5.07;;;4.50;99.90;;;;;;5042117;28;20255;-86
2023/02/01 07:50:26;;;;;;;9.17;4.80;;;4.50;99.90;;;;;;5042685;28;20204;-86
2023/02/01 07:52:53;;;;;;;6.90;4.77;;;4.50;99.90;;;;;;5040353;28;20196;-86
2023/02/01 07:55:19;;;;;;;6.37;4.57;;;4.60;99.90;;;;;;5043000;28;20212;-85
2023/02/01 07:57:45;;;;;;;6.17;4.47;;;4.60;99.90;;;;;;5041609;28;20228;-85
2023/02/01 08:03:00;;;;;;;8.60;4.73;;;4.60;99.90;;;;;;5043082;28;20713;-86
2023/02/01 08:05:26;;;;;;;7.53;4.93;;;4.60;99.90;;;;;;5041956;28;20193;-86
2023/02/01 08:07:52;;;;;;;6.53;4.77;;;4.70;99.90;;;;;;5041360;28;20192;-86
2023/02/01 08:10:18;;;;;;;5.00;4.50;;;4.60;99.90;;;;;;5040945;28;20767;-87
2023/02/01 08:12:48;;;;;;;5.40;4.80;;;4.70;99.90;;;;;;5040509;28;20200;-87
2023/02/01 08:15:17;;;;;;;4.37;3.73;;;4.80;99.90;;;;;;5040052;28;20193;-88
2023/02/01 08:17:47;;;;;;;5.50;4.43;;;4.80;99.90;;;;;;5041611;28;20172;-88
2023/02/01 08:20:14;;;;;;;5.03;4.03;;;4.70;99.90;;;;;;5044196;28;20231;-87
2023/02/01 08:22:39;;;;;;;4.73;4.20;;;4.70;99.90;;;;;;5041601;28;20190;-86
2023/02/01 08:25:06;;;;;;;4.70;4.03;;;4.70;99.90;;;;;;5043610;28;20209;-86
2023/02/01 08:27:35;;;;;;;6.83;4.23;;;4.70;99.90;;;;;;5044190;28;20264;-85
2023/02/01 08:30:01;;;;;;;6.47;4.23;;;4.70;99.90;;;;;;5043448;28;20204;-86
2023/02/01 08:32:27;;;;;;;6.60;4.30;;;4.70;99.90;;;;;;5043411;28;20177;-85
2023/02/01 08:34:53;;;;;;;4.70;3.80;;;4.60;99.90;;;;;;5044044;28;20625;-87
2023/02/01 08:37:18;;;;;;;5.63;4.60;;;4.70;99.90;;;;;;5043595;28;20188;-85
2023/02/01 08:39:44;;;;;;;6.40;4.57;;;4.80;99.90;;;;;;5043502;28;20573;-84
2023/02/01 08:44:56;;;;;;;6.13;4.03;;;4.70;99.90;;;;;;5049361;28;20219;-88
2023/02/01 08:47:21;;;;;;;5.80;3.97;;;4.70;99.90;;;;;;5051124;28;20276;-85
2023/02/01 08:49:47;;;;;;;7.17;4.60;;;4.70;99.90;;;;;;5046615;28;20220;-86
2023/02/01 08:52:13;;;;;;;5.90;3.90;;;4.70;99.90;;;;;;5044910;28;20181;-87
2023/02/01 08:54:40;;;;;;;7.20;4.33;;;4.70;99.90;;;;;;5043436;28;20247;-88
2023/02/01 08:57:06;;;;;;;4.57;3.90;;;4.80;99.90;;;;;;5028985;28;20181;-86
2023/02/01 08:59:32;;;;;;;7.10;4.23;;;5.00;99.90;;;;;;5059418;28;20277;-87
2023/02/01 09:01:58;;;;;;;7.70;4.60;;;4.90;99.90;;;;;;5042547;28;20188;-87
2023/02/01 09:04:24;;;;;;;6.77;3.90;;;4.90;99.90;;;;;;5039849;28;20278;-89
2023/02/01 09:06:50;;;;;;;7.17;3.87;;;4.90;99.90;;;;;;5038264;28;20177;-86
2023/02/01 09:09:15;;;;;;;5.87;4.03;;;5.00;99.90;;;;;;5040417;28;20315;-85
2023/02/01 09:11:41;;;;;;;5.50;3.80;;;5.00;99.90;;;;;;5041026;28;20177;-86
2023/02/01 09:14:06;;;;;;;6.10;3.83;;;5.10;99.90;;;;;;5030326;28;20190;-87
2023/02/01 09:16:32;;;;;;;5.57;3.87;;;5.10;99.90;;;;;;5040980;28;20558;-87
2023/02/01 09:18:58;;;;;;;8.80;4.23;;;5.10;99.90;;;;;;5042321;28;20200;-85
2023/02/01 09:21:24;;;;;;;6.93;4.13;;;5.20;99.90;;;;;;5043073;28;20184;-86
2023/02/01 09:23:51;;;;;;;6.67;4.40;;;5.20;99.90;;;;;;5042478;28;20234;-86
2023/02/01 09:26:17;;;;;;;8.43;3.87;;;5.20;99.90;;;;;;5043287;28;20219;-85
2023/02/01 09:28:42;;;;;;;7.17;4.47;;;5.30;99.90;;;;;;5042987;28;20253;-86
2023/02/01 09:31:08;;;;;;;6.67;4.00;;;5.30;99.90;;;;;;5044020;28;20670;-86
2023/02/01 09:33:35;;;;;;;7.83;3.83;;;5.40;99.90;;;;;;5043763;28;20181;-85
2023/02/01 09:36:03;;;;;;;6.03;3.63;;;5.30;99.90;;;;;;5042961;28;20189;-88
2023/02/01 09:38:30;;;;;;;6.30;3.87;;;5.30;99.90;;;;;;5043555;28;20228;-85
2023/02/01 09:40:57;;;;;;;3.87;3.20;;;5.30;99.90;;;;;;5036188;28;20217;-86
2023/02/01 09:43:47;;;;;;;6.00;4.17;;;5.30;99.90;;;;;;5040405;28;20193;-85
2023/02/01 09:46:32;;;;;;;7.43;4.23;;;5.40;99.90;;;;;;5042468;28;20204;-85
2023/02/01 09:49:05;;;;;;;7.13;3.67;;;5.30;99.90;;;;;;5041016;28;20246;-85
2023/02/01 09:51:36;;;;;;;9.70;3.43;;;5.40;99.90;;;;;;5042416;28;20169;-87
2023/02/01 09:54:13;;;;;;;7.43;4.10;;;5.40;99.90;;;;;;5043750;28;20172;-86
2023/02/01 09:56:53;;;;;;;9.27;3.87;;;5.50;99.90;;;;;;5040961;28;20188;-88
2023/02/01 09:59:40;;;;;;;7.37;3.63;;;5.50;99.90;;;;;;5041838;28;20210;-86
2023/02/01 10:02:14;;;;;;;8.53;4.30;;;5.50;99.90;;;;;;5042151;28;20204;-86
2023/02/01 10:04:40;;;;;;;7.30;3.70;;;5.50;99.90;;;;;;5041520;28;20189;-86
2023/02/01 10:07:11;;;;;;;7.60;3.70;;;5.50;99.90;;;;;;5041604;28;20173;-85
2023/02/01 10:09:59;;;;;;;5.70;3.33;;;5.60;99.90;;;;;;5040339;28;20196;-86
2023/02/01 10:12:57;;;;;;;9.40;4.10;;;5.50;99.90;;;;;;5042437;28;20184;-87
2023/02/01 10:15:55;;;;;;;8.37;3.80;;;5.70;99.90;;;;;;5041219;28;20181;-87
2023/02/01 10:18:52;;;;;;;9.50;3.67;;;5.60;99.90;;;;;;5042610;28;20196;-86
2023/02/01 10:21:39;;;;;;;6.87;3.60;;;5.70;99.90;;;;;;5033695;28;20188;-86
2023/02/01 10:24:52;;;;;;;4.43;3.60;;;5.70;99.90;;;;;;5040513;28;20208;-86
2023/02/01 10:27:21;;;;;;;5.53;3.17;;;5.70;99.90;;;;;;5033761;28;20236;-86
2023/02/01 10:29:59;;;;;;;4.47;3.60;;;5.70;99.90;;;;;;5042710;28;20717;-86
2023/02/01 10:32:34;;;;;;;6.20;3.57;;;5.80;99.90;;;;;;5058820;28;20184;-87
2023/02/01 10:35:31;;;;;;;6.77;3.87;;;5.70;99.90;;;;;;5042065;28;20157;-86
2023/02/01 10:38:02;;;;;;;5.70;3.60;;;5.70;99.90;;;;;;5041561;28;20185;-87
2023/02/01 10:40:28;;;;;;;5.47;3.47;;;5.70;99.90;;;;;;5041514;28;20601;-87
2023/02/01 10:43:01;;;;;;;8.63;3.87;;;5.70;99.90;;;;;;5040976;28;20196;-88
2023/02/01 10:45:33;;;;;;;6.93;3.97;;;5.80;99.90;;;;;;5042514;28;20863;-86
2023/02/01 10:48:02;;;;;;;10.93;4.37;;;5.80;99.90;;;;;;5042466;28;20200;-87
2023/02/01 10:50:58;;;;;;;7.17;3.63;;;6.00;99.90;;;;;;5043159;28;20193;-85
2023/02/01 10:53:52;;;;;;;6.87;3.83;;;5.90;99.90;;;;;;5043146;28;20713;-85
2023/02/01 10:56:24;;;;;;;8.07;3.87;;;6.00;99.90;;;;;;5021340;28;20186;-86
2023/02/01 10:58:51;;;;;;;8.97;3.40;;;6.00;99.90;;;;;;5022241;28;20184;-87
2023/02/01 11:01:27;;;;;;;7.30;4.30;;;5.90;99.90;;;;;;5029361;28;20185;-86
2023/02/01 11:03:57;;;;;;;5.77;3.93;;;5.90;99.90;;;;;;5040792;28;20216;-86
2023/02/01 11:06:52;;;;;;;7.50;3.93;;;6.00;99.90;;;;;;5042550;28;20177;-87
2023/02/01 11:09:24;;;;;;;8.13;4.10;;;6.00;99.90;;;;;;5038588;28;20205;-86
2023/02/01 11:11:50;;;;;;;10.30;4.10;;;6.00;99.90;;;;;;5024755;28;20174;-85
2023/02/01 11:14:20;;;;;;;8.17;3.63;;;6.00;99.90;;;;;;5034083;28;20185;-84
2023/02/01 11:16:52;;;;;;;7.87;4.43;;;6.00;99.90;;;;;;5036003;28;20181;-88
2023/02/01 11:19:18;;;;;;;6.30;3.53;;;6.00;99.90;;;;;;5054908;28;20212;-85
2023/02/01 11:21:47;;;;;;;5.07;3.60;;;6.00;99.90;;;;;;5055313;28;20185;-85
2023/02/01 11:24:25;;;;;;;9.67;4.10;;;6.00;99.90;;;;;;5043460;28;20231;-85
2023/02/01 11:26:54;;;;;;;8.87;4.13;;;5.90;99.90;;;;;;5042228;28;20200;-87
2023/02/01 11:29:28;;;;;;;7.77;4.33;;;5.90;99.90;;;;;;5044138;28;20224;-86
2023/02/01 11:31:59;;;;;;;8.97;3.93;;;5.90;99.90;;;;;;5047043;28;20227;-86
2023/02/01 11:34:52;;;;;;;7.77;4.40;;;6.00;99.90;;;;;;5043414;28;20184;-87
2023/02/01 11:37:34;;;;;;;10.80;4.00;;;6.00;99.90;;;;;;5026381;28;20182;-87
2023/02/01 11:40:23;;;;;;;6.87;4.50;;;5.90;99.90;;;;;;5027801;28;20206;-86
2023/02/01 11:43:00;;;;;;;10.13;3.77;;;5.90;99.90;;;;;;5044618;28;20192;-86
2023/02/01 11:45:37;;;;;;;9.53;4.00;;;6.10;99.90;;;;;;5045860;28;20209;-87
2023/02/01 11:48:15;;;;;;;14.43;4.27;;;6.00;98.60;;;;;;5046965;28;20203;-86
2023/02/01 11:51:09;;;;;;;7.00;4.10;;;6.00;99.50;;;;;;5046601;28;20208;-87
2023/02/01 11:53:40;;;;;;;8.57;3.93;;;6.20;99.00;;;;;;5025672;28;20219;-87
2023/02/01 11:56:09;;;;;;;7.33;3.67;;;6.20;99.10;;;;;;5046524;28;20248;-86
2023/02/01 11:59:06;;;;;;;9.67;4.20;;;6.20;99.30;;;;;;5043687;28;20554;-87
2023/02/01 12:01:47;;;;;;;6.60;3.80;;;6.20;98.00;;;;;;5044747;28;20185;-86
2023/02/01 12:04:32;;;;;;;7.10;4.00;;;6.20;99.70;;;;;;5060891;28;20205;-86
2023/02/01 12:07:20;;;;;;;8.93;3.77;;;6.20;97.90;;;;;;5045690;28;20166;-86
2023/02/01 12:10:04;;;;;;;8.57;3.83;;;6.20;99.40;;;;;;5065764;28;20211;-88
2023/02/01 12:12:48;;;;;;;5.83;3.57;;;6.20;98.40;;;;;;5046675;28;20184;-86
2023/02/01 12:15:57;;;;;;;9.17;3.90;;;6.30;97.90;;;;;;5038012;28;20647;-86
2023/02/01 12:18:23;;;;;;;9.37;4.40;;;6.20;98.50;;;;;;5027078;28;20288;-86
2023/02/01 12:21:26;;;;;;;11.23;4.07;;;6.20;98.20;;;;;;5046644;28;20196;-87
2023/02/01 12:24:03;;;;;;;5.93;3.93;;;6.20;98.80;;;;;;5048408;28;20228;-85
2023/02/01 12:26:49;;;;;;;8.33;4.13;;;6.10;99.90;;;;;;5044638;28;20268;-86
2023/02/01 12:29:30;;;;;;;9.33;4.03;;;6.10;99.90;;;;;;5046805;28;20209;-85
2023/02/01 12:32:32;;;;;;;6.97;3.90;;;6.00;99.90;;;;;;5044296;28;20176;-87
2023/02/01 12:35:09;;;;;;;7.90;3.97;;;6.10;99.90;;;;;;5056906;28;20185;-85
2023/02/01 12:38:05;;;;;;;5.90;4.40;;;6.20;99.00;;;;;;5056444;28;20187;-86
2023/02/01 12:40:48;;;;;;;7.27;4.23;;;6.20;98.80;;;;;;5047754;28;20204;-86
2023/02/01 12:43:26;;;;;;;5.70;3.90;;;6.20;98.90;;;;;;5045723;28;20265;-85
2023/02/01 12:46:01;;;;;;;8.60;3.93;;;6.20;98.70;;;;;;5045668;28;20169;-86
2023/02/01 12:48:32;;;;;;;7.10;3.50;;;6.30;98.70;;;;;;5046320;28;20157;-87
2023/02/01 12:51:08;;;;;;;9.33;3.83;;;6.40;97.60;;;;;;5043822;28;20648;-87
2023/02/01 12:53:55;;;;;;;7.97;3.87;;;6.40;98.00;;;;;;5045078;28;20351;-85
2023/02/01 12:56:49;;;;;;;12.53;5.10;;;6.30;97.30;;;;;;5045375;28;20237;-87
2023/02/01 12:59:35;;;;;;;10.17;4.47;;;6.20;99.50;;;;;;5042499;28;20234;-87
2023/02/01 13:02:09;;;;;;;9.23;4.50;;;6.30;99.80;;;;;;5059034;28;20271;-86
2023/02/01 13:04:44;;;;;;;10.63;4.77;;;6.20;99.90;;;;;;5045943;28;20205;-87
2023/02/01 13:07:18;;;;;;;11.83;4.30;;;6.10;99.90;;;;;;5045769;28;20225;-86
2023/02/01 13:09:54;;;;;;;13.43;4.27;;;6.30;95.90;;;;;;5044647;28;20200;-86
2023/02/01 13:12:28;;;;;;;13.00;4.47;;;6.50;92.80;;;;;;5046913;28;20247;-86
2023/02/01 13:15:03;;;;;;;15.17;4.10;;;6.60;93.30;;;;;;5046305;28;20181;-86
2023/02/01 13:17:32;;;;;;;13.20;4.03;;;6.60;92.00;;;;;;5047091;28;20168;-88
2023/02/01 13:20:10;;;;;;;9.20;3.73;;;6.60;92.30;;;;;;5045649;28;20201;-88
2023/02/01 13:22:43;;;;;;;10.50;3.93;;;6.60;92.50;;;;;;5025859;28;20201;-87
2023/02/01 13:25:16;;;;;;;10.53;4.00;;;6.60;92.70;;;;;;5025156;28;20257;-86
2023/02/01 13:27:41;;;;;;;10.43;4.13;;;6.60;92.80;;;;;;5037619;28;20181;-86
2023/02/01 13:30:46;;;;;;;11.60;4.20;;;6.60;93.10;;;;;;5044332;28;20212;-87
2023/02/01 13:33:59;;;;;;;9.67;3.70;;;6.70;93.10;;;;;;5043645;28;20184;-86
2023/02/01 13:36:31;;;;;;;14.03;4.60;;;6.60;92.90;;;;;;4992592;28;20194;-87
2023/02/01 13:39:22;;;;;;;9.43;3.77;;;6.50;92.80;;;;;;5043462;28;20227;-86
2023/02/01 13:42:01;;;;;;;9.97;4.33;;;6.60;91.10;;;;;;5044757;28;20538;-86